createdAt,value
2018-09-01T00:01:31.571Z,2.60
2018-09-01T00:04:00.812Z,2.17
2018-09-01T00:06:29.895Z,2.60
2018-09-01T00:08:59.044Z,2.40
2018-09-01T00:11:34.980Z,2.40
2018-09-01T00:14:04.286Z,2.33
2018-09-01T00:16:33.410Z,2.27
2018-09-01T00:19:02.705Z,1.90
2018-09-01T00:21:31.864Z,2.20
2018-09-01T00:24:05.108Z,2.47
2018-09-01T00:26:34.162Z,1.60
2018-09-01T00:29:03.280Z,2.57
2018-09-01T00:31:32.395Z,2.20
2018-09-01T00:34:01.687Z,2.77
2018-09-01T00:36:30.805Z,1.70
2018-09-01T00:39:06.934Z,2.70
2018-09-01T00:41:36.559Z,2.00
2018-09-01T00:44:05.683Z,1.90
2018-09-01T00:46:35.105Z,2.33
2018-09-01T00:49:04.239Z,2.20
2018-09-01T00:51:33.385Z,2.53
2018-09-01T00:54:02.542Z,2.40
2018-09-01T00:56:31.723Z,2.00
2018-09-01T00:59:00.856Z,2.20
2018-09-01T01:01:29.968Z,2.13
2018-09-01T01:03:59.071Z,2.20
2018-09-01T01:06:28.232Z,2.27
2018-09-01T01:08:57.459Z,2.50
2018-09-01T01:11:26.584Z,2.17
2018-09-01T01:13:55.713Z,2.37
2018-09-01T01:16:24.798Z,1.97
2018-09-01T01:18:53.931Z,2.07
2018-09-01T01:21:23.120Z,2.53
2018-09-01T01:23:52.257Z,2.20
2018-09-01T01:26:21.434Z,2.00
2018-09-01T01:28:50.514Z,2.27
2018-09-01T01:31:19.646Z,2.50
2018-09-01T01:33:48.809Z,2.20
2018-09-01T01:36:17.964Z,2.83
2018-09-01T01:38:47.084Z,2.33
2018-09-01T01:41:16.267Z,3.07
2018-09-01T01:43:45.460Z,2.70
2018-09-01T01:46:14.616Z,2.60
2018-09-01T01:48:43.745Z,2.17
2018-09-01T01:51:13.213Z,2.30
2018-09-01T01:53:42.360Z,2.57
2018-09-01T01:56:11.503Z,2.93
2018-09-01T01:58:40.683Z,2.90
2018-09-01T02:01:09.814Z,2.50
2018-09-01T02:03:38.951Z,2.53
2018-09-01T02:06:08.120Z,2.50
2018-09-01T02:08:37.244Z,3.13
2018-09-01T02:11:06.372Z,2.30
2018-09-01T02:13:35.530Z,3.27
2018-09-01T02:16:04.841Z,2.83
2018-09-01T02:18:33.976Z,3.23
2018-09-01T02:21:03.110Z,2.73
2018-09-01T02:23:32.237Z,2.70
2018-09-01T02:26:01.345Z,3.30
2018-09-01T02:28:30.505Z,2.90
2018-09-01T02:30:59.617Z,2.67
2018-09-01T02:33:28.768Z,3.90
2018-09-01T02:35:57.951Z,2.57
2018-09-01T02:38:27.070Z,3.57
2018-09-01T02:40:56.169Z,3.13
2018-09-01T02:43:25.288Z,3.87
2018-09-01T02:45:54.457Z,3.37
2018-09-01T02:48:23.677Z,3.50
2018-09-01T02:50:52.790Z,3.80
2018-09-01T02:53:21.894Z,3.20
2018-09-01T02:55:50.967Z,3.30
2018-09-01T02:58:20.125Z,2.60
2018-09-01T03:00:53.355Z,4.00
2018-09-01T03:03:22.479Z,3.30
2018-09-01T03:05:51.703Z,3.90
2018-09-01T03:08:20.846Z,4.70
2018-09-01T03:10:49.980Z,4.50
2018-09-01T03:13:19.132Z,4.13
2018-09-01T03:15:48.449Z,3.50
2018-09-01T03:18:17.575Z,4.30
2018-09-01T03:20:46.690Z,4.33
2018-09-01T03:23:15.862Z,3.60
2018-09-01T03:25:44.999Z,4.33
2018-09-01T03:28:14.087Z,3.20
2018-09-01T03:30:43.230Z,3.63
2018-09-01T03:33:12.635Z,3.40
2018-09-01T03:35:41.815Z,3.43
2018-09-01T03:38:10.976Z,3.63
2018-09-01T03:40:40.116Z,4.03
2018-09-01T03:43:09.288Z,3.40
2018-09-01T03:45:38.435Z,3.90
2018-09-01T03:48:07.534Z,3.63
2018-09-01T03:50:36.709Z,4.00
2018-09-01T03:53:05.963Z,3.53
2018-09-01T03:55:35.153Z,4.07
2018-09-01T03:58:04.491Z,3.80
2018-09-01T04:00:33.604Z,4.77
2018-09-01T04:03:02.737Z,3.63
2018-09-01T04:05:31.865Z,4.63
2018-09-01T04:08:00.978Z,3.67
2018-09-01T04:10:30.135Z,4.07
2018-09-01T04:12:59.257Z,3.50
2018-09-01T04:15:28.333Z,4.87
2018-09-01T04:17:57.476Z,4.47
2018-09-01T04:20:26.567Z,3.73
2018-09-01T04:22:55.715Z,3.80
2018-09-01T04:25:24.870Z,4.63
2018-09-01T04:27:54.174Z,3.87
2018-09-01T04:30:23.357Z,4.63
2018-09-01T04:32:52.549Z,4.20
2018-09-01T04:35:21.691Z,4.53
2018-09-01T04:37:50.812Z,4.10
2018-09-01T04:40:19.955Z,4.07
2018-09-01T04:42:49.153Z,4.13
2018-09-01T04:45:18.531Z,3.83
2018-09-01T04:47:47.703Z,3.83
2018-09-01T04:50:16.829Z,4.60
2018-09-01T04:52:45.921Z,4.13
2018-09-01T04:55:15.038Z,4.60
2018-09-01T04:57:44.146Z,4.33
2018-09-01T05:00:17.366Z,4.57
2018-09-01T05:02:46.542Z,4.40
2018-09-01T05:05:15.683Z,4.77
2018-09-01T05:07:44.960Z,4.50
2018-09-01T05:10:14.078Z,5.00
2018-09-01T05:12:43.236Z,5.23
2018-09-01T05:15:12.440Z,4.60
2018-09-01T05:17:41.613Z,4.83
2018-09-01T05:20:10.763Z,4.20
2018-09-01T05:22:39.914Z,4.10
2018-09-01T05:25:09.237Z,4.47
2018-09-01T05:27:38.401Z,4.67
2018-09-01T05:30:09.305Z,4.40
2018-09-01T05:32:38.485Z,4.20
2018-09-01T05:35:07.591Z,4.67
2018-09-01T05:37:36.761Z,4.97
2018-09-01T05:40:07.096Z,4.37
2018-09-01T05:42:36.204Z,4.60
2018-09-01T05:45:05.357Z,4.40
2018-09-01T05:47:34.481Z,5.20
2018-09-01T05:50:03.574Z,4.77
2018-09-01T05:52:32.678Z,5.10
2018-09-01T05:55:01.822Z,5.47
2018-09-01T05:57:30.978Z,4.90
2018-09-01T06:00:00.170Z,4.97
2018-09-01T06:02:29.377Z,4.10
2018-09-01T06:04:58.537Z,4.20
2018-09-01T06:07:27.704Z,4.90
2018-09-01T06:09:56.838Z,5.10
2018-09-01T06:12:25.958Z,4.80
2018-09-01T06:14:55.149Z,4.47
2018-09-01T06:17:24.391Z,4.17
2018-09-01T06:19:53.500Z,4.53
2018-09-01T06:22:22.705Z,4.70
2018-09-01T06:24:51.925Z,4.37
2018-09-01T06:27:24.038Z,4.00
2018-09-01T06:29:53.230Z,4.90
2018-09-01T06:32:22.422Z,4.93
2018-09-01T06:34:51.559Z,4.67
2018-09-01T06:37:20.729Z,4.00
2018-09-01T06:39:49.920Z,5.23
2018-09-01T06:42:19.019Z,4.87
2018-09-01T06:44:48.209Z,5.57
2018-09-01T06:47:17.325Z,5.00
2018-09-01T06:49:46.513Z,5.37
2018-09-01T06:52:15.691Z,5.17
2018-09-01T06:54:44.821Z,6.30
2018-09-01T06:57:13.976Z,4.30
2018-09-01T06:59:43.118Z,4.63
2018-09-01T07:02:12.311Z,5.17
2018-09-01T07:04:41.545Z,5.33
2018-09-01T07:07:10.697Z,5.53
2018-09-01T07:09:39.864Z,5.47
2018-09-01T07:12:09.139Z,5.33
2018-09-01T07:14:38.269Z,4.40
2018-09-01T07:17:07.417Z,4.50
2018-09-01T07:19:36.583Z,5.20
2018-09-01T07:22:06.047Z,6.40
2018-09-01T07:24:35.224Z,5.73
2018-09-01T07:27:04.342Z,5.20
2018-09-01T07:29:33.562Z,4.60
2018-09-01T07:32:02.872Z,4.80
2018-09-01T07:34:32.082Z,4.50
2018-09-01T07:37:02.143Z,4.07
2018-09-01T07:39:31.268Z,4.80
2018-09-01T07:42:00.422Z,4.63
2018-09-01T07:44:29.780Z,3.93
2018-09-01T07:46:58.928Z,4.87
2018-09-01T07:49:28.071Z,5.10
2018-09-01T07:51:57.260Z,4.70
2018-09-01T07:54:26.562Z,4.70
2018-09-01T07:56:55.692Z,5.53
2018-09-01T07:59:24.789Z,5.13
2018-09-01T08:01:53.939Z,4.00
2018-09-01T08:04:23.131Z,4.73
2018-09-01T08:06:52.258Z,5.20
2018-09-01T08:09:21.392Z,5.13
2018-09-01T08:11:50.576Z,4.63
2018-09-01T08:14:19.814Z,4.77
2018-09-01T08:16:48.918Z,5.13
2018-09-01T08:19:18.132Z,4.70
2018-09-01T08:21:47.587Z,5.40
2018-09-01T08:24:16.722Z,5.47
2018-09-01T08:26:45.865Z,5.57
2018-09-01T08:29:14.980Z,5.30
2018-09-01T08:31:44.106Z,5.20
2018-09-01T08:34:13.275Z,5.03
2018-09-01T08:36:42.430Z,4.70
2018-09-01T08:39:11.766Z,4.60
2018-09-01T08:41:40.943Z,3.80
2018-09-01T08:44:10.075Z,4.30
2018-09-01T08:46:39.221Z,4.40
2018-09-01T08:49:08.354Z,4.40
2018-09-01T08:51:37.486Z,3.93
2018-09-01T08:54:06.653Z,3.27
2018-09-01T08:56:35.983Z,3.30
2018-09-01T08:59:05.108Z,3.60
2018-09-01T09:01:34.285Z,3.27
2018-09-01T09:04:03.502Z,3.60
2018-09-01T09:06:32.686Z,3.63
2018-09-01T09:09:01.844Z,3.03
2018-09-01T09:11:30.970Z,3.37
2018-09-01T09:14:00.121Z,2.53
2018-09-01T09:16:29.278Z,2.70
2018-09-01T09:18:58.403Z,2.10
2018-09-01T09:21:27.500Z,1.93
2018-09-01T09:23:56.716Z,2.53
2018-09-01T09:26:25.986Z,2.50
2018-09-01T09:28:55.105Z,2.10
2018-09-01T09:31:24.400Z,2.13
2018-09-01T09:33:53.539Z,2.10
2018-09-01T09:36:22.662Z,2.90
2018-09-01T09:38:51.968Z,2.43
2018-09-01T09:41:21.125Z,2.97
2018-09-01T09:43:50.232Z,1.90
2018-09-01T09:46:19.360Z,2.00
2018-09-01T09:48:48.645Z,2.10
2018-09-01T09:51:17.790Z,1.97
2018-09-01T09:53:46.913Z,2.47
2018-09-01T09:56:16.121Z,2.40
2018-09-01T09:58:45.322Z,2.70
2018-09-01T10:01:19.883Z,2.60
2018-09-01T10:03:49.035Z,2.23
2018-09-01T10:06:18.127Z,2.60
2018-09-01T10:08:47.443Z,2.47
2018-09-01T10:11:16.616Z,2.77
2018-09-01T10:13:45.705Z,1.77
2018-09-01T10:16:14.831Z,2.20
2018-09-01T10:18:44.015Z,2.73
2018-09-01T10:21:13.728Z,2.03
2018-09-01T10:23:43.217Z,2.33
2018-09-01T10:26:12.382Z,1.90
2018-09-01T10:28:41.607Z,2.43
2018-09-01T10:31:10.753Z,2.43
2018-09-01T10:33:40.050Z,2.50
2018-09-01T10:36:10.228Z,2.80
2018-09-01T10:38:40.395Z,2.40
2018-09-01T10:41:09.549Z,2.43
2018-09-01T10:43:38.723Z,2.20
2018-09-01T10:46:07.917Z,2.30
2018-09-01T10:48:37.032Z,2.33
2018-09-01T10:51:06.334Z,2.27
2018-09-01T10:53:35.516Z,1.90
2018-09-01T10:56:04.634Z,2.80
2018-09-01T10:58:33.838Z,3.03
2018-09-01T11:01:04.023Z,4.00
2018-09-01T11:03:33.168Z,3.33
2018-09-01T11:06:02.334Z,2.73
2018-09-01T11:08:32.815Z,2.50
2018-09-01T11:11:02.022Z,2.50
2018-09-01T11:13:31.221Z,2.77
2018-09-01T11:16:00.395Z,3.23
2018-09-01T11:18:29.628Z,2.87
2018-09-01T11:20:58.825Z,3.27
2018-09-01T11:23:27.926Z,3.20
2018-09-01T11:25:57.128Z,3.57
2018-09-01T11:28:26.298Z,3.33
2018-09-01T11:30:56.157Z,2.60
2018-09-01T11:33:25.310Z,3.20
2018-09-01T11:35:54.555Z,3.47
2018-09-01T11:38:23.694Z,3.70
2018-09-01T11:40:53.005Z,4.00
2018-09-01T11:43:22.213Z,3.00
2018-09-01T11:45:51.332Z,3.90
2018-09-01T11:48:20.543Z,3.07
2018-09-01T11:50:49.681Z,3.07
2018-09-01T11:53:18.899Z,3.80
2018-09-01T11:55:47.923Z,3.10
2018-09-01T11:58:17.156Z,2.73
2018-09-01T12:00:46.336Z,3.20
2018-09-01T12:03:15.474Z,3.60
2018-09-01T12:05:44.582Z,3.87
2018-09-01T12:08:13.720Z,3.33
2018-09-01T12:10:42.887Z,3.40
2018-09-01T12:13:12.197Z,3.17
2018-09-01T12:15:41.520Z,3.20
2018-09-01T12:18:10.673Z,3.20
2018-09-01T12:20:40.013Z,3.60
2018-09-01T12:23:09.213Z,3.30
2018-09-01T12:25:38.393Z,2.73
2018-09-01T12:28:07.586Z,3.50
2018-09-01T12:30:36.728Z,3.33
2018-09-01T12:33:05.997Z,3.67
2018-09-01T12:35:35.135Z,3.53
2018-09-01T12:38:04.259Z,3.97
2018-09-01T12:40:33.396Z,3.00
2018-09-01T12:43:02.500Z,3.83
2018-09-01T12:45:31.636Z,3.53
2018-09-01T12:48:00.774Z,3.30
2018-09-01T12:50:29.893Z,3.40
2018-09-01T12:52:59.106Z,3.80
2018-09-01T12:55:28.206Z,3.80
2018-09-01T12:57:57.276Z,3.13
2018-09-01T13:00:26.477Z,3.43
2018-09-01T13:02:55.600Z,3.60
2018-09-01T13:05:24.744Z,3.53
2018-09-01T13:07:53.959Z,4.27
2018-09-01T13:10:23.085Z,3.27
2018-09-01T13:12:52.222Z,2.67
2018-09-01T13:15:21.342Z,3.10
2018-09-01T13:17:50.702Z,3.73
2018-09-01T13:20:19.819Z,3.40
2018-09-01T13:22:48.939Z,2.83
2018-09-01T13:25:18.200Z,3.10
2018-09-01T13:27:47.346Z,3.13
2018-09-01T13:30:16.471Z,3.70
2018-09-01T13:32:45.669Z,3.50
2018-09-01T13:35:14.885Z,3.97
2018-09-01T13:37:44.208Z,4.33
2018-09-01T13:40:13.511Z,3.20
2018-09-01T13:42:42.646Z,3.43
2018-09-01T13:45:11.826Z,3.10
2018-09-01T13:47:41.012Z,3.57
2018-09-01T13:50:10.160Z,3.00
2018-09-01T13:52:39.279Z,2.50
2018-09-01T13:55:08.517Z,3.10
2018-09-01T13:57:37.670Z,3.50
2018-09-01T14:00:07.145Z,3.20
2018-09-01T14:02:36.293Z,3.37
2018-09-01T14:05:05.442Z,3.20
2018-09-01T14:07:34.737Z,3.97
2018-09-01T14:10:04.226Z,3.27
2018-09-01T14:12:33.328Z,3.03
2018-09-01T14:15:02.511Z,3.30
2018-09-01T14:17:31.673Z,3.40
2018-09-01T14:20:00.820Z,3.90
2018-09-01T14:22:30.073Z,3.10
2018-09-01T14:24:59.204Z,3.83
2018-09-01T14:27:28.402Z,3.27
2018-09-01T14:29:57.525Z,3.40
2018-09-01T14:32:26.615Z,3.47
2018-09-01T14:34:55.751Z,3.80
2018-09-01T14:37:24.855Z,4.17
2018-09-01T14:39:54.032Z,3.00
2018-09-01T14:42:23.247Z,4.50
2018-09-01T14:44:52.403Z,3.50
2018-09-01T14:47:21.673Z,3.20
2018-09-01T14:49:50.820Z,3.30
2018-09-01T14:52:19.964Z,3.97
2018-09-01T14:54:49.138Z,3.20
2018-09-01T14:57:18.242Z,3.00
2018-09-01T14:59:48.521Z,3.80
2018-09-01T15:02:18.099Z,3.30
2018-09-01T15:04:47.275Z,7.20
2018-09-01T15:07:16.951Z,6.37
2018-09-01T15:09:46.109Z,6.30
2018-09-01T15:12:15.201Z,4.80
2018-09-01T15:14:44.323Z,4.10
2018-09-01T15:17:13.531Z,4.30
2018-09-01T15:19:42.769Z,4.10
2018-09-01T15:22:12.292Z,3.03
2018-09-01T15:24:41.488Z,3.43
2018-09-01T15:27:11.391Z,3.90
2018-09-01T15:29:40.466Z,5.17
2018-09-01T15:32:09.639Z,3.70
2018-09-01T15:34:38.738Z,3.93
2018-09-01T15:37:07.945Z,2.80
2018-09-01T15:39:37.152Z,7.27
2018-09-01T15:42:06.630Z,11.07
2018-09-01T15:44:35.818Z,6.80
2018-09-01T15:47:05.016Z,6.90
2018-09-01T15:49:34.244Z,6.07
2018-09-01T15:52:03.384Z,8.00
2018-09-01T15:54:32.594Z,3.53
2018-09-01T15:57:01.714Z,11.10
2018-09-01T15:59:30.889Z,7.23
2018-09-01T16:02:00.138Z,3.27
2018-09-01T16:04:35.970Z,3.80
2018-09-01T16:07:05.162Z,3.20
2018-09-01T16:09:34.386Z,6.47
2018-09-01T16:12:03.583Z,5.80
2018-09-01T16:14:32.739Z,3.63
2018-09-01T16:17:02.081Z,5.40
2018-09-01T16:19:31.171Z,6.20
2018-09-01T16:22:00.331Z,4.97
2018-09-01T16:24:29.505Z,9.80
2018-09-01T16:26:58.748Z,5.73
2018-09-01T16:29:27.821Z,6.10
2018-09-01T16:31:56.992Z,3.90
2018-09-01T16:34:26.276Z,2.60
2018-09-01T16:36:55.343Z,3.83
2018-09-01T16:39:24.445Z,3.00
2018-09-01T16:41:53.599Z,3.90
2018-09-01T16:44:22.746Z,3.90
2018-09-01T16:46:51.888Z,3.70
2018-09-01T16:49:21.055Z,3.23
2018-09-01T16:51:50.461Z,3.27
2018-09-01T16:54:19.753Z,3.47
2018-09-01T16:56:48.878Z,3.20
2018-09-01T16:59:18.085Z,3.50
2018-09-01T17:01:47.272Z,4.40
2018-09-01T17:04:16.421Z,4.57
2018-09-01T17:06:45.583Z,4.10
2018-09-01T17:09:14.738Z,3.93
2018-09-01T17:11:43.941Z,3.90
2018-09-01T17:14:13.162Z,4.30
2018-09-01T17:16:42.265Z,4.57
2018-09-01T17:19:11.452Z,3.90
2018-09-01T17:21:40.600Z,4.80
2018-09-01T17:24:09.789Z,4.60
2018-09-01T17:26:39.002Z,5.40
2018-09-01T17:29:08.115Z,5.30
2018-09-01T17:31:37.341Z,5.37
2018-09-01T17:34:06.498Z,5.87
2018-09-01T17:36:35.630Z,6.47
2018-09-01T17:39:06.499Z,5.10
2018-09-01T17:41:35.671Z,5.90
2018-09-01T17:44:04.985Z,5.07
2018-09-01T17:46:34.182Z,4.90
2018-09-01T17:49:03.324Z,4.90
2018-09-01T17:51:32.425Z,4.60
2018-09-01T17:54:01.743Z,4.00
2018-09-01T17:56:31.049Z,5.30
2018-09-01T17:59:00.113Z,4.40
2018-09-01T18:01:29.809Z,4.60
2018-09-01T18:03:58.921Z,4.93
2018-09-01T18:06:27.994Z,4.57
2018-09-01T18:08:57.234Z,4.47
2018-09-01T18:11:26.389Z,4.70
2018-09-01T18:13:55.489Z,5.73
2018-09-01T18:16:24.706Z,7.53
2018-09-01T18:18:53.765Z,6.73
2018-09-01T18:21:23.032Z,6.43
2018-09-01T18:23:52.250Z,6.37
2018-09-01T18:26:21.386Z,6.50
2018-09-01T18:28:50.522Z,7.53
2018-09-01T18:31:19.677Z,7.40
2018-09-01T18:33:48.815Z,7.60
2018-09-01T18:36:18.134Z,7.40
2018-09-01T18:38:47.590Z,14.53
2018-09-01T18:41:16.777Z,12.30
2018-09-01T18:43:46.080Z,9.53
2018-09-01T18:46:15.411Z,7.70
2018-09-01T18:48:44.583Z,7.00
2018-09-01T18:51:13.919Z,6.80
2018-09-01T18:53:43.122Z,6.87
2018-09-01T18:56:12.268Z,6.63
2018-09-01T18:58:41.597Z,7.10
2018-09-01T19:01:10.803Z,7.10
2018-09-01T19:03:39.998Z,5.17
2018-09-01T19:06:09.162Z,4.87
2018-09-01T19:08:38.261Z,4.40
2018-09-01T19:11:07.327Z,5.00
2018-09-01T19:13:36.537Z,5.37
2018-09-01T19:16:05.951Z,5.20
2018-09-01T19:18:35.374Z,4.90
2018-09-01T19:21:04.520Z,5.87
2018-09-01T19:23:33.684Z,5.60
2018-09-01T19:26:02.971Z,5.50
2018-09-01T19:28:32.232Z,6.20
2018-09-01T19:31:01.352Z,5.00
2018-09-01T19:33:30.497Z,5.30
2018-09-01T19:35:59.674Z,5.20
2018-09-01T19:38:28.855Z,4.93
2018-09-01T19:40:57.963Z,4.80
2018-09-01T19:43:27.261Z,4.87
2018-09-01T19:45:56.443Z,4.40
2018-09-01T19:48:25.564Z,3.77
2018-09-01T19:50:54.736Z,4.17
2018-09-01T19:53:23.932Z,3.93
2018-09-01T19:55:53.065Z,3.80
2018-09-01T19:58:22.276Z,3.73
2018-09-01T20:00:51.421Z,3.53
2018-09-01T20:03:20.616Z,3.30
2018-09-01T20:05:49.802Z,3.20
2018-09-01T20:08:18.967Z,3.37
2018-09-01T20:10:48.054Z,3.50
2018-09-01T20:13:17.247Z,3.60
2018-09-01T20:15:46.371Z,3.77
2018-09-01T20:18:15.558Z,3.87
2018-09-01T20:20:44.753Z,3.17
2018-09-01T20:23:14.058Z,4.20
2018-09-01T20:25:43.308Z,3.23
2018-09-01T20:28:12.492Z,3.77
2018-09-01T20:30:41.642Z,4.03
2018-09-01T20:33:10.913Z,3.50
2018-09-01T20:35:45.392Z,3.70
2018-09-01T20:38:14.530Z,3.00
2018-09-01T20:40:43.648Z,3.53
2018-09-01T20:43:13.039Z,3.43
2018-09-01T20:45:42.219Z,3.40
2018-09-01T20:48:11.361Z,4.53
2018-09-01T20:50:40.471Z,4.00
2018-09-01T20:53:09.609Z,3.33
2018-09-01T20:55:38.755Z,3.97
2018-09-01T20:58:07.913Z,3.50
2018-09-01T21:00:37.105Z,3.60
2018-09-01T21:03:06.235Z,2.87
2018-09-01T21:05:35.458Z,3.23
2018-09-01T21:08:04.728Z,3.50
2018-09-01T21:10:33.919Z,3.07
2018-09-01T21:13:03.076Z,2.70
2018-09-01T21:15:32.247Z,2.60
2018-09-01T21:18:01.409Z,3.10
2018-09-01T21:20:30.623Z,2.20
2018-09-01T21:22:59.842Z,2.70
2018-09-01T21:25:29.029Z,2.77
2018-09-01T21:27:58.214Z,3.10
2018-09-01T21:30:27.366Z,3.60
2018-09-01T21:32:57.172Z,3.40
2018-09-01T21:35:26.312Z,3.70
2018-09-01T21:37:55.521Z,2.90
2018-09-01T21:40:24.676Z,2.40
2018-09-01T21:42:53.768Z,2.40
2018-09-01T21:45:22.951Z,3.10
2018-09-01T21:47:52.114Z,2.43
2018-09-01T21:50:21.256Z,3.37
2018-09-01T21:52:50.448Z,2.83
2018-09-01T21:55:19.582Z,2.43
2018-09-01T21:57:48.688Z,3.10
2018-09-01T22:00:17.812Z,2.93
2018-09-01T22:02:46.977Z,2.57
2018-09-01T22:05:18.214Z,3.03
2018-09-01T22:07:47.523Z,3.37
2018-09-01T22:10:16.686Z,3.80
2018-09-01T22:12:45.865Z,3.20
2018-09-01T22:15:15.050Z,3.33
2018-09-01T22:17:44.227Z,2.10
2018-09-01T22:20:13.341Z,2.87
2018-09-01T22:22:42.466Z,2.60
2018-09-01T22:25:11.646Z,3.10
2018-09-01T22:27:40.817Z,2.77
2018-09-01T22:30:10.006Z,2.97
2018-09-01T22:32:39.237Z,2.70
2018-09-01T22:35:08.399Z,3.20
2018-09-01T22:37:37.586Z,2.70
2018-09-01T22:40:06.691Z,2.57
2018-09-01T22:42:35.816Z,2.93
2018-09-01T22:45:05.180Z,3.17
2018-09-01T22:47:35.416Z,3.23
2018-09-01T22:50:04.527Z,3.40
2018-09-01T22:52:33.706Z,2.90
2018-09-01T22:55:03.051Z,3.50
2018-09-01T22:57:32.277Z,3.07
2018-09-01T23:00:01.408Z,2.90
2018-09-01T23:02:30.550Z,2.70
2018-09-01T23:04:59.765Z,2.03
2018-09-01T23:07:28.922Z,2.50
2018-09-01T23:09:58.118Z,2.83
2018-09-01T23:12:27.357Z,2.63
2018-09-01T23:14:56.512Z,2.73
2018-09-01T23:17:25.794Z,3.10
2018-09-01T23:19:54.926Z,3.00
2018-09-01T23:22:24.044Z,3.03
2018-09-01T23:24:53.357Z,3.00
2018-09-01T23:27:22.480Z,3.13
2018-09-01T23:29:51.658Z,2.77
2018-09-01T23:32:20.838Z,2.10
2018-09-01T23:34:50.015Z,2.87
2018-09-01T23:37:19.158Z,2.90
2018-09-01T23:39:48.312Z,2.97
2018-09-01T23:42:17.571Z,3.23
2018-09-01T23:44:46.691Z,2.90
2018-09-01T23:47:15.888Z,2.70
2018-09-01T23:49:45.110Z,2.80
2018-09-01T23:52:14.612Z,3.10
2018-09-01T23:54:43.785Z,2.80
2018-09-01T23:57:12.930Z,2.90
2018-09-01T23:59:42.126Z,3.27
